Time;durP1;ratioP1;P1;durP2;ratioP2;P2;SDS_P1;SDS_P2;PMS_P1;PMS_P2;Temp;Humidity;BMP_temperature;BMP_pressure;BME280_temperature;BME280_humidity;BME280_pressure;Samples;Min_cycle;Max_cycle;Signal;HPM_P1;HPM_P2
2021/09/26 00:00:25;;;;;;;29.58;16.42;;;;;;;;;;5010706;28;20034;-65
2021/09/26 00:02:51;;;;;;;34.97;17.50;;;;;;;;;;5009713;28;20030;-66
2021/09/26 00:05:17;;;;;;;30.35;16.63;;;;;;;;;;5010650;28;20022;-66
2021/09/26 00:07:43;;;;;;;30.83;16.02;;;;;;;;;;5013407;28;20057;-66
2021/09/26 00:10:10;;;;;;;28.80;15.77;;;;;;;;;;5010964;28;20106;-66
2021/09/26 00:12:36;;;;;;;35.65;17.38;;;;;;;;;;5010121;28;20033;-66
2021/09/26 00:15:05;;;;;;;37.42;18.23;;;;;;;;;;5003416;28;20040;-66
2021/09/26 00:17:30;;;;;;;34.45;17.85;;;;;;;;;;5005915;28;20538;-65
2021/09/26 00:19:57;;;;;;;30.70;16.95;;;;;;;;;;5010799;28;20117;-65
2021/09/26 00:22:23;;;;;;;34.03;17.88;;;;;;;;;;5015897;28;20026;-65
2021/09/26 00:24:49;;;;;;;33.67;17.65;;;;;;;;;;5010978;28;20032;-65
2021/09/26 00:27:15;;;;;;;24.70;15.52;;;;;;;;;;5007485;28;20026;-65
2021/09/26 00:29:41;;;;;;;29.25;15.82;;;;;;;;;;5001410;28;20067;-66
2021/09/26 00:32:08;;;;;;;35.88;18.52;;;;;;;;;;5005187;28;20034;-66
2021/09/26 00:34:34;;;;;;;31.13;17.05;;;;;;;;;;5007465;28;20612;-66
2021/09/26 00:37:00;;;;;;;31.95;16.60;;;;;;;;;;5000203;28;20471;-66
2021/09/26 00:39:26;;;;;;;31.98;17.50;;;;;;;;;;5007404;28;20025;-66
2021/09/26 00:41:53;;;;;;;33.78;17.50;;;;;;;;;;5010643;28;20030;-66
2021/09/26 00:44:19;;;;;;;32.28;16.27;;;;;;;;;;5006591;28;20022;-66
2021/09/26 00:46:45;;;;;;;31.52;16.52;;;;;;;;;;5010330;28;20364;-66
2021/09/26 00:49:11;;;;;;;33.25;18.10;;;;;;;;;;5005642;28;20037;-66
2021/09/26 00:51:37;;;;;;;28.80;16.30;;;;;;;;;;5003938;28;20625;-66
2021/09/26 00:54:03;;;;;;;33.15;18.00;;;;;;;;;;5008829;28;20041;-66
2021/09/26 00:56:32;;;;;;;29.70;16.10;;;;;;;;;;4999003;28;20487;-66
2021/09/26 00:58:59;;;;;;;28.50;15.25;;;;;;;;;;5008167;28;20038;-66
2021/09/26 01:01:25;;;;;;;26.25;15.25;;;;;;;;;;5009924;28;20025;-66
2021/09/26 01:03:51;;;;;;;30.52;16.02;;;;;;;;;;5007586;28;20030;-66
2021/09/26 01:06:35;;;;;;;32.33;18.10;;;;;;;;;;5013184;28;20109;-66
2021/09/26 01:09:07;;;;;;;30.10;16.42;;;;;;;;;;5013221;28;20374;-66
2021/09/26 01:11:45;;;;;;;29.45;15.75;;;;;;;;;;5011651;28;20030;-66
2021/09/26 01:14:22;;;;;;;33.75;18.52;;;;;;;;;;5008383;28;20053;-66
2021/09/26 01:16:57;;;;;;;36.75;19.23;;;;;;;;;;5009698;28;20041;-66
2021/09/26 01:19:39;;;;;;;29.38;16.52;;;;;;;;;;5009848;28;20482;-66
2021/09/26 01:22:11;;;;;;;29.10;16.98;;;;;;;;;;5015666;28;20040;-66
2021/09/26 01:24:55;;;;;;;29.60;16.55;;;;;;;;;;5010029;28;20026;-66
2021/09/26 01:27:21;;;;;;;27.58;14.63;;;;;;;;;;5006975;28;20041;-66
2021/09/26 01:30:05;;;;;;;26.95;16.67;;;;;;;;;;4997630;28;20142;-66
2021/09/26 01:32:33;;;;;;;28.05;15.65;;;;;;;;;;5008530;28;20033;-66
2021/09/26 01:35:00;;;;;;;30.63;16.85;;;;;;;;;;5009264;28;20417;-66
2021/09/26 01:37:39;;;;;;;36.65;17.33;;;;;;;;;;5007558;28;20087;-66
2021/09/26 01:40:05;;;;;;;26.63;15.45;;;;;;;;;;5017253;28;20361;-66
2021/09/26 01:42:35;;;;;;;32.92;17.05;;;;;;;;;;5009079;28;20037;-66
2021/09/26 01:45:05;;;;;;;27.27;15.20;;;;;;;;;;5010054;28;20029;-66
2021/09/26 01:47:40;;;;;;;29.00;16.90;;;;;;;;;;5009012;28;20437;-66
2021/09/26 01:50:09;;;;;;;27.23;15.10;;;;;;;;;;5009535;28;20030;-66
2021/09/26 01:52:35;;;;;;;34.80;15.60;;;;;;;;;;5002115;28;20026;-66
2021/09/26 01:55:02;;;;;;;32.58;17.60;;;;;;;;;;5009993;28;20109;-66
2021/09/26 01:57:29;;;;;;;29.10;15.73;;;;;;;;;;5016781;28;20038;-66
2021/09/26 01:59:57;;;;;;;30.38;16.77;;;;;;;;;;5009784;28;20026;-66
2021/09/26 02:02:24;;;;;;;32.55;16.73;;;;;;;;;;5008774;28;20037;-66
2021/09/26 02:04:51;;;;;;;29.63;15.95;;;;;;;;;;5003770;28;20490;-66
2021/09/26 02:07:18;;;;;;;34.25;17.60;;;;;;;;;;5006434;28;20371;-66
2021/09/26 02:09:46;;;;;;;29.60;16.05;;;;;;;;;;5008934;28;20113;-66
2021/09/26 02:12:13;;;;;;;30.98;16.98;;;;;;;;;;5011242;28;20541;-66
2021/09/26 02:14:39;;;;;;;35.55;16.50;;;;;;;;;;5018684;28;20032;-66
2021/09/26 02:17:06;;;;;;;28.95;17.75;;;;;;;;;;5001550;28;20034;-66
2021/09/26 02:19:34;;;;;;;30.88;17.10;;;;;;;;;;5007995;28;20026;-66
2021/09/26 02:22:00;;;;;;;28.80;16.63;;;;;;;;;;5013453;28;20335;-66
2021/09/26 02:24:27;;;;;;;33.67;17.88;;;;;;;;;;5012615;28;20026;-66
2021/09/26 02:26:53;;;;;;;32.13;17.48;;;;;;;;;;5012645;28;20060;-66
2021/09/26 02:29:19;;;;;;;27.92;16.67;;;;;;;;;;5012409;28;20034;-66
2021/09/26 02:31:46;;;;;;;30.45;16.88;;;;;;;;;;5013102;28;20053;-66
2021/09/26 02:34:12;;;;;;;27.42;16.23;;;;;;;;;;5012838;28;20036;-66
2021/09/26 02:36:38;;;;;;;36.92;18.05;;;;;;;;;;5012521;28;20045;-66
2021/09/26 02:39:04;;;;;;;29.55;17.15;;;;;;;;;;5012469;28;20143;-66
2021/09/26 02:41:35;;;;;;;29.48;16.58;;;;;;;;;;5012293;28;20032;-66
2021/09/26 02:44:13;;;;;;;32.08;17.05;;;;;;;;;;5011606;28;20061;-66
2021/09/26 02:46:40;;;;;;;30.15;16.50;;;;;;;;;;5013709;28;20128;-66
2021/09/26 02:49:07;;;;;;;32.20;16.65;;;;;;;;;;5006261;28;20030;-66
2021/09/26 02:51:34;;;;;;;26.83;16.65;;;;;;;;;;5005839;28;20666;-66
2021/09/26 02:54:01;;;;;;;31.55;17.80;;;;;;;;;;5012143;28;20044;-66
2021/09/26 02:56:27;;;;;;;31.23;16.23;;;;;;;;;;5012324;28;20108;-66
2021/09/26 02:58:54;;;;;;;31.38;17.55;;;;;;;;;;5011742;28;20029;-66
2021/09/26 03:01:20;;;;;;;27.90;15.75;;;;;;;;;;5012428;28;20486;-66
2021/09/26 03:03:46;;;;;;;29.02;16.88;;;;;;;;;;5013412;28;20030;-66
2021/09/26 03:06:12;;;;;;;31.30;15.93;;;;;;;;;;5016995;28;20026;-66
2021/09/26 03:08:38;;;;;;;27.95;15.95;;;;;;;;;;5006522;28;20034;-66
2021/09/26 03:11:04;;;;;;;32.28;17.67;;;;;;;;;;5012007;28;20034;-66
2021/09/26 03:13:31;;;;;;;29.98;15.98;;;;;;;;;;5009642;28;20143;-66
2021/09/26 03:15:57;;;;;;;32.40;16.67;;;;;;;;;;5012276;28;20490;-66
2021/09/26 03:18:23;;;;;;;28.70;15.23;;;;;;;;;;5000263;28;20026;-66
2021/09/26 03:20:49;;;;;;;28.85;16.67;;;;;;;;;;5019784;28;20084;-66
2021/09/26 03:23:15;;;;;;;31.63;15.85;;;;;;;;;;5011624;28;20025;-66
2021/09/26 03:25:41;;;;;;;32.25;15.90;;;;;;;;;;5018271;28;20534;-66
2021/09/26 03:28:07;;;;;;;27.35;16.85;;;;;;;;;;5012564;28;20125;-66
2021/09/26 03:30:33;;;;;;;32.58;16.83;;;;;;;;;;5007129;28;20050;-66
2021/09/26 03:32:59;;;;;;;29.63;17.58;;;;;;;;;;5008977;28;20395;-66
2021/09/26 03:35:25;;;;;;;33.38;17.48;;;;;;;;;;5002759;28;20163;-66
2021/09/26 03:37:51;;;;;;;29.02;15.80;;;;;;;;;;5014273;28;20060;-66
2021/09/26 03:40:17;;;;;;;30.50;17.48;;;;;;;;;;5014642;28;20029;-65
2021/09/26 03:42:43;;;;;;;25.20;15.52;;;;;;;;;;5015923;28;20029;-66
2021/09/26 03:45:10;;;;;;;28.95;15.32;;;;;;;;;;5010431;28;20030;-66
2021/09/26 03:47:36;;;;;;;24.35;15.15;;;;;;;;;;5005829;28;20398;-66
2021/09/26 03:50:03;;;;;;;29.75;15.98;;;;;;;;;;5000758;28;20022;-65
2021/09/26 03:52:29;;;;;;;29.63;15.23;;;;;;;;;;5013976;28;20028;-66
2021/09/26 03:54:55;;;;;;;27.05;14.90;;;;;;;;;;5015384;28;20580;-66
2021/09/26 03:57:21;;;;;;;29.17;16.38;;;;;;;;;;5016086;28;20041;-66
2021/09/26 03:59:48;;;;;;;29.73;15.82;;;;;;;;;;5012312;28;20030;-65
2021/09/26 04:02:14;;;;;;;25.88;16.10;;;;;;;;;;5016352;28;20026;-66
2021/09/26 04:04:40;;;;;;;29.48;16.17;;;;;;;;;;5013203;28;20387;-65
2021/09/26 04:07:06;;;;;;;30.10;14.90;;;;;;;;;;5014818;28;20029;-66
2021/09/26 04:09:32;;;;;;;28.25;15.10;;;;;;;;;;5005581;28;20137;-66
2021/09/26 04:11:58;;;;;;;25.45;16.08;;;;;;;;;;5012816;28;20042;-66
2021/09/26 04:14:23;;;;;;;28.60;15.32;;;;;;;;;;5019234;28;20106;-66
2021/09/26 04:16:52;;;;;;;29.73;15.52;;;;;;;;;;5013904;28;20038;-65
2021/09/26 04:19:18;;;;;;;24.33;15.45;;;;;;;;;;5012981;28;20517;-66
2021/09/26 04:21:44;;;;;;;27.23;15.65;;;;;;;;;;5010476;28;20483;-66
2021/09/26 04:24:10;;;;;;;31.83;16.70;;;;;;;;;;5005040;28;20081;-66
2021/09/26 04:26:36;;;;;;;26.52;15.88;;;;;;;;;;5012722;28;20029;-66
2021/09/26 04:29:02;;;;;;;27.92;15.75;;;;;;;;;;5006409;28;20080;-66
2021/09/26 04:31:28;;;;;;;31.58;16.50;;;;;;;;;;5007644;28;20087;-66
2021/09/26 04:33:54;;;;;;;31.80;17.25;;;;;;;;;;5000991;28;20121;-66
2021/09/26 04:36:20;;;;;;;27.05;16.45;;;;;;;;;;5013133;28;20033;-66
2021/09/26 04:38:46;;;;;;;29.63;16.27;;;;;;;;;;5013204;28;20025;-66
2021/09/26 04:41:12;;;;;;;32.13;15.57;;;;;;;;;;5013843;28;20026;-66
2021/09/26 04:43:38;;;;;;;29.10;16.13;;;;;;;;;;5018215;28;20097;-65
2021/09/26 04:46:04;;;;;;;26.13;16.17;;;;;;;;;;5013460;28;20026;-66
2021/09/26 04:48:31;;;;;;;25.27;15.85;;;;;;;;;;5012242;28;20030;-66
2021/09/26 04:50:57;;;;;;;29.40;16.77;;;;;;;;;;5012889;28;20533;-66
2021/09/26 04:53:23;;;;;;;29.33;16.17;;;;;;;;;;5000377;28;20505;-66
2021/09/26 04:55:49;;;;;;;29.85;16.30;;;;;;;;;;5011799;28;20026;-66
2021/09/26 04:58:15;;;;;;;37.53;17.48;;;;;;;;;;5007919;28;20037;-66
2021/09/26 05:00:41;;;;;;;28.65;16.45;;;;;;;;;;5011939;28;20410;-65
2021/09/26 05:03:08;;;;;;;28.90;17.20;;;;;;;;;;5012167;28;20097;-65
2021/09/26 05:05:33;;;;;;;31.35;16.38;;;;;;;;;;5011238;28;20022;-65
2021/09/26 05:08:00;;;;;;;27.73;16.33;;;;;;;;;;5007108;28;20022;-65
2021/09/26 05:10:26;;;;;;;32.63;17.67;;;;;;;;;;5010465;28;20029;-65
2021/09/26 05:12:52;;;;;;;30.55;16.20;;;;;;;;;;5013431;28;20038;-66
2021/09/26 05:15:18;;;;;;;30.33;17.17;;;;;;;;;;5016272;28;20156;-65
2021/09/26 05:17:44;;;;;;;30.45;17.00;;;;;;;;;;5011794;28;20057;-66
2021/09/26 05:20:10;;;;;;;36.53;18.52;;;;;;;;;;5011792;28;20030;-66
2021/09/26 05:22:36;;;;;;;31.92;17.23;;;;;;;;;;5008477;28;20030;-66
2021/09/26 05:25:03;;;;;;;33.35;18.00;;;;;;;;;;5002972;28;20014;-66
2021/09/26 05:27:29;;;;;;;34.22;19.35;;;;;;;;;;5013059;28;20026;-66
2021/09/26 05:29:55;;;;;;;35.47;19.60;;;;;;;;;;5012370;28;20032;-66
2021/09/26 05:32:21;;;;;;;33.65;19.50;;;;;;;;;;5013171;28;20470;-66
2021/09/26 05:34:47;;;;;;;32.83;18.20;;;;;;;;;;5012128;28;20501;-66
2021/09/26 05:37:13;;;;;;;32.63;17.98;;;;;;;;;;5012358;28;20029;-66
2021/09/26 05:39:39;;;;;;;35.38;19.60;;;;;;;;;;5010896;28;20113;-66
2021/09/26 05:42:06;;;;;;;36.88;19.85;;;;;;;;;;5014314;28;20029;-66
2021/09/26 05:44:36;;;;;;;36.90;19.85;;;;;;;;;;5007863;28;20018;-66
2021/09/26 05:47:02;;;;;;;37.10;19.92;;;;;;;;;;5015280;28;20065;-66
2021/09/26 05:49:28;;;;;;;33.05;19.92;;;;;;;;;;5016021;28;20026;-66
2021/09/26 05:51:54;;;;;;;32.08;19.17;;;;;;;;;;5010899;28;20109;-66
2021/09/26 05:54:20;;;;;;;36.65;20.75;;;;;;;;;;5013199;28;20054;-66
2021/09/26 05:56:49;;;;;;;33.63;19.35;;;;;;;;;;5015656;28;20029;-66
2021/09/26 05:59:15;;;;;;;39.83;21.85;;;;;;;;;;5013524;28;20467;-66
2021/09/26 06:01:41;;;;;;;32.88;18.42;;;;;;;;;;5002261;28;20040;-66
2021/09/26 06:04:07;;;;;;;36.22;21.70;;;;;;;;;;5011325;28;20018;-66
2021/09/26 06:06:33;;;;;;;36.60;20.45;;;;;;;;;;5013409;28;20018;-66
2021/09/26 06:08:59;;;;;;;34.58;19.90;;;;;;;;;;5012407;28;20068;-66
2021/09/26 06:11:25;;;;;;;35.95;20.42;;;;;;;;;;5008636;28;20037;-66
2021/09/26 06:13:51;;;;;;;41.90;22.30;;;;;;;;;;4998250;28;20472;-66
2021/09/26 06:16:17;;;;;;;36.75;21.50;;;;;;;;;;5004417;28;20030;-66
2021/09/26 06:18:43;;;;;;;39.10;20.95;;;;;;;;;;5008261;28;20376;-66
2021/09/26 06:21:08;;;;;;;36.58;20.90;;;;;;;;;;5004435;28;20479;-66
2021/09/26 06:23:34;;;;;;;37.05;21.75;;;;;;;;;;5005653;28;20050;-66
2021/09/26 06:26:00;;;;;;;42.60;24.00;;;;;;;;;;5003647;28;20054;-66
2021/09/26 06:28:26;;;;;;;37.45;22.08;;;;;;;;;;5002650;28;20023;-66
2021/09/26 06:30:52;;;;;;;37.38;21.30;;;;;;;;;;4999139;28;20539;-66
2021/09/26 06:33:18;;;;;;;36.78;21.33;;;;;;;;;;5005695;28;20140;-66
2021/09/26 06:35:45;;;;;;;40.80;21.83;;;;;;;;;;5002165;28;20093;-66
2021/09/26 06:38:11;;;;;;;39.08;21.73;;;;;;;;;;4997970;28;20027;-66
2021/09/26 06:40:37;;;;;;;39.33;21.45;;;;;;;;;;5005070;28;20024;-66
2021/09/26 06:43:03;;;;;;;33.90;20.88;;;;;;;;;;4997302;28;20022;-67
2021/09/26 06:45:29;;;;;;;38.42;21.48;;;;;;;;;;5002648;28;20471;-66
2021/09/26 06:47:55;;;;;;;38.42;21.10;;;;;;;;;;5001478;28;20022;-66
2021/09/26 06:50:21;;;;;;;38.00;21.63;;;;;;;;;;4999758;28;20028;-66
2021/09/26 06:52:47;;;;;;;38.10;21.67;;;;;;;;;;5007998;28;20430;-66
2021/09/26 06:55:13;;;;;;;38.10;22.92;;;;;;;;;;5000074;28;20073;-66
2021/09/26 06:57:39;;;;;;;39.45;20.92;;;;;;;;;;5003275;28;20038;-66
2021/09/26 07:00:06;;;;;;;37.22;20.98;;;;;;;;;;4999501;28;20030;-66
2021/09/26 07:02:32;;;;;;;33.70;20.73;;;;;;;;;;5005076;28;20030;-66
2021/09/26 07:04:58;;;;;;;40.28;23.05;;;;;;;;;;5003274;28;20033;-66
2021/09/26 07:07:24;;;;;;;39.42;21.13;;;;;;;;;;5000093;28;20111;-66
2021/09/26 07:09:51;;;;;;;45.28;23.77;;;;;;;;;;4998152;28;20499;-66
2021/09/26 07:12:18;;;;;;;36.72;21.25;;;;;;;;;;4998222;28;20023;-66
2021/09/26 07:14:44;;;;;;;39.63;21.70;;;;;;;;;;4997308;28;20056;-66
2021/09/26 07:17:10;;;;;;;45.45;23.45;;;;;;;;;;5000306;28;20388;-65
2021/09/26 07:19:36;;;;;;;38.42;21.52;;;;;;;;;;5005560;28;20022;-65
2021/09/26 07:22:02;;;;;;;38.30;21.58;;;;;;;;;;5000609;28;20418;-65
2021/09/26 07:24:28;;;;;;;44.08;23.45;;;;;;;;;;5002270;28;20036;-65
2021/09/26 07:26:54;;;;;;;42.55;22.90;;;;;;;;;;4999178;28;20110;-65
2021/09/26 07:29:20;;;;;;;34.83;21.35;;;;;;;;;;5001213;28;20101;-65
2021/09/26 07:31:46;;;;;;;36.30;21.98;;;;;;;;;;5000012;28;20026;-65
2021/09/26 07:34:12;;;;;;;31.08;20.70;;;;;;;;;;5000053;28;20045;-65
2021/09/26 07:36:38;;;;;;;26.70;16.52;;;;;;;;;;4999513;28;20480;-65
2021/09/26 07:39:05;;;;;;;25.63;15.88;;;;;;;;;;4998569;28;20549;-66
2021/09/26 07:41:31;;;;;;;20.42;13.18;;;;;;;;;;5012322;28;20030;-66
2021/09/26 07:43:58;;;;;;;19.35;13.73;;;;;;;;;;4996862;28;20104;-66
2021/09/26 07:46:24;;;;;;;18.63;12.98;;;;;;;;;;4996726;28;20034;-66
2021/09/26 07:48:50;;;;;;;21.42;14.52;;;;;;;;;;4993863;28;20057;-66
2021/09/26 07:51:16;;;;;;;18.48;13.23;;;;;;;;;;4993554;28;20034;-65
2021/09/26 07:53:42;;;;;;;20.02;13.43;;;;;;;;;;4993624;28;20104;-65
2021/09/26 07:56:08;;;;;;;18.75;13.25;;;;;;;;;;4995973;28;20026;-63
2021/09/26 07:58:34;;;;;;;21.45;12.27;;;;;;;;;;4993661;28;20039;-63
2021/09/26 08:01:01;;;;;;;21.17;13.50;;;;;;;;;;4993587;28;20022;-63
2021/09/26 08:03:27;;;;;;;20.17;13.73;;;;;;;;;;4995347;28;20022;-63
2021/09/26 08:05:53;;;;;;;20.50;13.75;;;;;;;;;;4994794;28;20042;-63
2021/09/26 08:08:19;;;;;;;21.23;13.25;;;;;;;;;;4999923;28;20037;-63
2021/09/26 08:10:45;;;;;;;19.45;13.85;;;;;;;;;;4995378;28;20026;-65
2021/09/26 08:13:11;;;;;;;20.45;13.75;;;;;;;;;;5001769;28;20467;-63
2021/09/26 08:15:37;;;;;;;22.13;14.60;;;;;;;;;;4996800;28;20038;-63
2021/09/26 08:18:03;;;;;;;22.35;13.80;;;;;;;;;;4994931;28;20029;-63
2021/09/26 08:20:29;;;;;;;20.95;13.82;;;;;;;;;;4993206;28;20114;-63
2021/09/26 08:22:55;;;;;;;21.77;13.77;;;;;;;;;;4992871;28;20039;-63
2021/09/26 08:25:22;;;;;;;18.23;13.20;;;;;;;;;;4995808;28;20436;-63
2021/09/26 08:27:49;;;;;;;16.95;12.40;;;;;;;;;;4994657;28;20507;-63
2021/09/26 08:30:16;;;;;;;21.05;13.35;;;;;;;;;;4994552;28;20077;-63
2021/09/26 08:32:42;;;;;;;17.75;12.32;;;;;;;;;;4995962;28;20026;-63
2021/09/26 08:35:08;;;;;;;21.80;12.40;;;;;;;;;;4995179;28;20092;-63
2021/09/26 08:37:35;;;;;;;16.70;11.93;;;;;;;;;;4996860;28;20088;-63
2021/09/26 08:40:01;;;;;;;17.45;11.73;;;;;;;;;;4997580;28;20030;-63
2021/09/26 08:42:27;;;;;;;16.30;11.98;;;;;;;;;;5003265;28;20038;-63
2021/09/26 08:44:53;;;;;;;15.30;11.52;;;;;;;;;;5008840;28;20452;-64
2021/09/26 08:47:19;;;;;;;15.88;11.70;;;;;;;;;;5003630;28;20030;-62
2021/09/26 08:49:46;;;;;;;14.25;11.15;;;;;;;;;;5008009;28;20550;-62
2021/09/26 08:52:11;;;;;;;17.20;12.43;;;;;;;;;;5004091;28;20092;-62
2021/09/26 08:54:39;;;;;;;15.43;10.98;;;;;;;;;;5000181;28;20046;-62
2021/09/26 08:57:05;;;;;;;15.70;12.48;;;;;;;;;;4995199;28;20030;-62
2021/09/26 08:59:31;;;;;;;17.58;12.93;;;;;;;;;;4995906;28;20034;-62
2021/09/26 09:01:57;;;;;;;16.70;12.25;;;;;;;;;;5001411;28;20076;-62
2021/09/26 09:04:42;;;;;;;19.58;11.90;;;;;;;;;;4997865;28;20037;-62
2021/09/26 09:07:09;;;;;;;18.17;12.40;;;;;;;;;;5002239;28;20083;-62
2021/09/26 09:09:49;;;;;;;18.00;12.40;;;;;;;;;;4997896;28;20022;-62
2021/09/26 09:12:15;;;;;;;;;;;;;;;;;;5005851;28;20089;-62
2021/09/26 09:14:55;;;;;;;19.40;12.45;;;;;;;;;;5000837;28;19913;-62
2021/09/26 09:17:28;;;;;;;16.92;12.52;;;;;;;;;;4999876;28;20152;-62
2021/09/26 09:20:12;;;;;;;18.67;12.65;;;;;;;;;;4993999;28;20036;-62
2021/09/26 09:22:39;;;;;;;14.85;11.45;;;;;;;;;;4994990;28;20034;-62
2021/09/26 09:25:05;;;;;;;21.17;13.82;;;;;;;;;;4993964;28;20054;-62
2021/09/26 09:27:31;;;;;;;20.60;13.38;;;;;;;;;;4993952;28;20069;-62
2021/09/26 09:29:57;;;;;;;20.42;14.50;;;;;;;;;;5005455;28;20076;-62
2021/09/26 09:32:23;;;;;;;18.92;14.07;;;;;;;;;;5007756;28;20482;-62
2021/09/26 09:34:49;;;;;;;21.23;14.90;;;;;;;;;;4997908;28;20045;-63
2021/09/26 09:37:23;;;;;;;21.90;15.30;;;;;;;;;;5006666;28;20073;-63
2021/09/26 09:40:08;;;;;;;20.75;14.82;;;;;;;;;;5001752;28;20041;-63
2021/09/26 09:42:48;;;;;;;22.13;14.90;;;;;;;;;;5006598;28;20118;-65
2021/09/26 09:45:13;;;;;;;22.13;15.30;;;;;;;;;;5001553;28;20034;-63
2021/09/26 09:47:57;;;;;;;21.77;15.65;;;;;;;;;;5001737;28;20044;-63
2021/09/26 09:50:40;;;;;;;22.50;15.40;;;;;;;;;;4999466;28;20022;-62
2021/09/26 09:53:07;;;;;;;21.98;14.88;;;;;;;;;;5000505;28;20081;-62
2021/09/26 09:55:33;;;;;;;18.95;12.57;;;;;;;;;;4996125;28;20022;-62
2021/09/26 09:58:13;;;;;;;17.13;11.82;;;;;;;;;;5005269;28;20069;-62
2021/09/26 10:00:58;;;;;;;18.55;11.68;;;;;;;;;;4997503;28;20022;-62
2021/09/26 10:03:36;;;;;;;14.85;10.93;;;;;;;;;;4999299;28;20030;-62
2021/09/26 10:06:03;;;;;;;16.52;10.98;;;;;;;;;;5008806;28;20065;-62
2021/09/26 10:08:33;;;;;;;15.98;12.07;;;;;;;;;;5006360;28;20092;-62
2021/09/26 10:10:58;;;;;;;;;;;;;;;;;;5006531;28;20570;-62
2021/09/26 10:13:25;;;;;;;17.65;11.55;;;;;;;;;;5008099;28;19955;-62
2021/09/26 10:15:51;;;;;;;17.55;11.57;;;;;;;;;;5006071;28;20117;-62
2021/09/26 10:18:17;;;;;;;16.08;11.00;;;;;;;;;;5006364;28;20172;-62
2021/09/26 10:20:42;;;;;;;15.60;9.38;;;;;;;;;;5007418;28;20372;-62
2021/09/26 10:23:09;;;;;;;14.02;9.48;;;;;;;;;;5008796;28;20434;-62
2021/09/26 10:25:35;;;;;;;15.25;10.00;;;;;;;;;;5002037;28;20049;-62
2021/09/26 10:28:01;;;;;;;15.40;10.23;;;;;;;;;;5009900;28;20773;-63
2021/09/26 10:30:27;;;;;;;14.25;10.45;;;;;;;;;;5009280;28;20069;-63
2021/09/26 10:32:55;;;;;;;13.40;10.18;;;;;;;;;;5011473;28;20022;-63
2021/09/26 10:35:21;;;;;;;17.13;10.35;;;;;;;;;;5010022;28;20018;-63
2021/09/26 10:37:47;;;;;;;14.70;11.00;;;;;;;;;;5006607;28;20436;-63
2021/09/26 10:40:15;;;;;;;14.38;10.98;;;;;;;;;;5004076;28;20391;-63
2021/09/26 10:42:41;;;;;;;16.33;11.50;;;;;;;;;;4997850;28;20038;-62
2021/09/26 10:45:09;;;;;;;17.25;11.60;;;;;;;;;;5003281;28;20038;-62
2021/09/26 10:47:36;;;;;;;15.63;11.57;;;;;;;;;;5001408;28;20647;-63
2021/09/26 10:50:02;;;;;;;17.65;11.55;;;;;;;;;;5005668;28;20030;-63
2021/09/26 10:52:28;;;;;;;17.23;10.85;;;;;;;;;;4998454;28;20121;-63
2021/09/26 10:54:54;;;;;;;16.88;11.20;;;;;;;;;;5003485;28;20214;-63
2021/09/26 10:57:30;;;;;;;17.83;12.52;;;;;;;;;;5002757;28;20096;-63
2021/09/26 10:59:57;;;;;;;18.00;10.77;;;;;;;;;;4998736;28;20479;-63
2021/09/26 11:02:23;;;;;;;16.40;9.70;;;;;;;;;;5005476;28;20378;-63
2021/09/26 11:04:50;;;;;;;13.82;9.95;;;;;;;;;;5009930;28;20080;-63
2021/09/26 11:07:16;;;;;;;14.35;9.65;;;;;;;;;;5010198;28;20076;-63
2021/09/26 11:09:51;;;;;;;14.60;10.00;;;;;;;;;;5003951;28;20022;-63
2021/09/26 11:12:36;;;;;;;11.85;8.70;;;;;;;;;;5008282;28;20577;-63
2021/09/26 11:15:07;;;;;;;11.25;7.75;;;;;;;;;;5000294;28;20038;-63
2021/09/26 11:17:45;;;;;;;12.75;7.78;;;;;;;;;;5005465;28;20033;-63
2021/09/26 11:20:12;;;;;;;12.30;8.88;;;;;;;;;;5006866;28;20037;-63
2021/09/26 11:22:38;;;;;;;11.55;7.50;;;;;;;;;;5012000;28;20057;-64
2021/09/26 11:25:05;;;;;;;14.77;8.60;;;;;;;;;;5010842;28;20032;-63
2021/09/26 11:27:32;;;;;;;11.77;7.57;;;;;;;;;;5019910;28;20429;-63
2021/09/26 11:30:07;;;;;;;11.10;7.82;;;;;;;;;;4999545;28;20022;-63
2021/09/26 11:32:34;;;;;;;12.50;8.48;;;;;;;;;;5003982;28;20065;-63
2021/09/26 11:35:21;;;;;;;10.82;7.18;;;;;;;;;;5011184;28;20026;-63
2021/09/26 11:37:48;;;;;;;12.00;6.93;;;;;;;;;;5011297;28;20036;-63
2021/09/26 11:40:15;;;;;;;11.50;8.18;;;;;;;;;;5006320;28;20041;-63
2021/09/26 11:42:42;;;;;;;12.43;7.72;;;;;;;;;;5009027;28;20025;-63
2021/09/26 11:45:10;;;;;;;14.35;7.75;;;;;;;;;;5010620;28;20037;-63
2021/09/26 11:47:36;;;;;;;13.70;7.57;;;;;;;;;;4994355;28;20034;-63
2021/09/26 11:50:13;;;;;;;11.73;7.60;;;;;;;;;;4994866;28;20093;-63
2021/09/26 11:52:40;;;;;;;10.15;7.28;;;;;;;;;;5010793;28;20053;-64
2021/09/26 11:55:06;;;;;;;9.75;6.88;;;;;;;;;;5011457;28;20117;-64
2021/09/26 11:57:32;;;;;;;13.02;9.48;;;;;;;;;;5009740;28;20053;-63
2021/09/26 11:59:58;;;;;;;11.07;7.95;;;;;;;;;;5040747;23;20132;-69
2021/09/26 12:02:24;;;;;;;17.95;7.90;;;;;;;;;;5032062;28;20131;-71
2021/09/26 12:04:50;;;;;;;12.13;8.77;;;;;;;;;;5029849;28;20076;-71
2021/09/26 12:07:16;;;;;;;12.95;8.43;;;;;;;;;;5031899;28;20087;-71
2021/09/26 12:09:43;;;;;;;10.55;8.15;;;;;;;;;;5022672;28;20029;-71
2021/09/26 12:12:30;;;;;;;14.90;8.63;;;;;;;;;;5046349;28;20080;-71
2021/09/26 12:15:03;;;;;;;10.80;7.85;;;;;;;;;;5044819;28;20404;-71
2021/09/26 12:17:30;;;;;;;14.13;8.73;;;;;;;;;;5043469;28;20037;-71
2021/09/26 12:19:57;;;;;;;13.93;10.27;;;;;;;;;;5041450;28;20090;-71
2021/09/26 12:22:26;;;;;;;13.48;8.73;;;;;;;;;;5035587;28;20025;-70
2021/09/26 12:24:56;;;;;;;11.55;8.02;;;;;;;;;;5046626;28;20033;-71
2021/09/26 12:27:22;;;;;;;14.48;9.60;;;;;;;;;;5039579;28;20040;-71
2021/09/26 12:30:12;;;;;;;10.90;8.48;;;;;;;;;;5021315;28;20040;-70
2021/09/26 12:32:51;;;;;;;12.60;9.15;;;;;;;;;;5021408;28;20037;-71
2021/09/26 12:35:31;;;;;;;12.38;8.38;;;;;;;;;;5046303;28;20079;-71
2021/09/26 12:37:59;;;;;;;10.10;7.25;;;;;;;;;;5044882;28;20029;-71
2021/09/26 12:40:27;;;;;;;10.70;7.38;;;;;;;;;;5023602;28;20369;-71
2021/09/26 12:42:54;;;;;;;8.48;6.85;;;;;;;;;;5033951;28;20475;-71
2021/09/26 12:45:23;;;;;;;11.18;6.15;;;;;;;;;;5042126;28;20096;-71
2021/09/26 12:47:51;;;;;;;13.68;7.43;;;;;;;;;;5032866;28;20045;-71
2021/09/26 12:50:18;;;;;;;8.32;6.55;;;;;;;;;;5030994;28;20032;-70
2021/09/26 12:52:44;;;;;;;9.82;6.40;;;;;;;;;;5033343;28;20026;-71
2021/09/26 12:55:12;;;;;;;10.52;6.50;;;;;;;;;;5032553;28;20057;-71
2021/09/26 12:57:40;;;;;;;9.18;6.38;;;;;;;;;;5038199;28;20494;-70
2021/09/26 13:00:18;;;;;;;10.73;6.55;;;;;;;;;;5034561;28;20336;-70
2021/09/26 13:02:49;;;;;;;11.82;7.45;;;;;;;;;;5036093;28;20033;-70
2021/09/26 13:05:25;;;;;;;10.00;7.93;;;;;;;;;;5031973;28;20044;-71
2021/09/26 13:08:24;;;;;;;11.65;7.93;;;;;;;;;;5032285;28;20052;-71
2021/09/26 13:11:01;;;;;;;9.60;7.10;;;;;;;;;;5001093;28;20041;-72
2021/09/26 13:13:31;;;;;;;9.82;7.30;;;;;;;;;;5034837;28;20021;-72
2021/09/26 13:16:16;;;;;;;12.10;7.65;;;;;;;;;;5036188;28;20490;-71
2021/09/26 13:18:42;;;;;;;15.05;8.85;;;;;;;;;;5033615;28;20056;-71
2021/09/26 13:21:27;;;;;;;12.93;8.43;;;;;;;;;;5030992;28;20454;-71
2021/09/26 13:23:57;;;;;;;12.02;8.52;;;;;;;;;;5031896;28;20048;-70
2021/09/26 13:26:23;;;;;;;11.98;7.90;;;;;;;;;;5032856;28;20017;-71
2021/09/26 13:28:51;;;;;;;13.60;8.70;;;;;;;;;;5033466;28;20033;-70
2021/09/26 13:31:23;;;;;;;14.35;10.38;;;;;;;;;;5025844;28;20048;-71
2021/09/26 13:34:00;;;;;;;14.57;9.45;;;;;;;;;;5018707;28;20497;-71
2021/09/26 13:36:34;;;;;;;13.63;9.68;;;;;;;;;;5038686;28;20029;-70
2021/09/26 13:39:01;;;;;;;13.75;9.13;;;;;;;;;;5026911;28;20037;-71
2021/09/26 13:41:27;;;;;;;14.57;10.15;;;;;;;;;;5039270;28;20036;-71
2021/09/26 13:44:06;;;;;;;14.00;9.48;;;;;;;;;;5038195;28;20025;-69
2021/09/26 13:46:32;;;;;;;14.43;10.13;;;;;;;;;;5049279;28;20028;-71
2021/09/26 13:48:59;;;;;;;16.55;10.90;;;;;;;;;;5049456;28;20025;-71
2021/09/26 13:51:25;;;;;;;13.80;9.40;;;;;;;;;;5045803;28;20043;-71
2021/09/26 13:53:51;;;;;;;13.80;9.50;;;;;;;;;;5053078;28;20029;-71
2021/09/26 13:56:17;;;;;;;10.75;7.97;;;;;;;;;;5053448;28;20099;-71
2021/09/26 13:58:43;;;;;;;11.30;8.32;;;;;;;;;;5035288;28;20017;-71
2021/09/26 14:01:11;;;;;;;12.05;8.25;;;;;;;;;;5029145;28;20579;-71
2021/09/26 14:03:37;;;;;;;12.73;8.85;;;;;;;;;;5037660;28;20097;-71
2021/09/26 14:06:03;;;;;;;11.77;8.32;;;;;;;;;;5036175;28;20656;-71
2021/09/26 14:08:29;;;;;;;11.85;8.63;;;;;;;;;;5036362;28;20025;-71
2021/09/26 14:10:55;;;;;;;14.80;8.95;;;;;;;;;;5039159;28;20040;-71
2021/09/26 14:13:21;;;;;;;15.23;9.23;;;;;;;;;;5037329;28;20041;-71
2021/09/26 14:15:48;;;;;;;14.63;9.02;;;;;;;;;;5038049;28;20029;-71
2021/09/26 14:18:14;;;;;;;12.73;8.10;;;;;;;;;;5038966;28;20049;-71
2021/09/26 14:20:40;;;;;;;12.43;8.43;;;;;;;;;;5045526;28;20021;-70
2021/09/26 14:23:06;;;;;;;13.60;8.80;;;;;;;;;;5037362;28;20026;-71
2021/09/26 14:25:33;;;;;;;13.23;9.05;;;;;;;;;;5032052;28;20041;-71